Gladstone, Oregon
Current Conditions -  °F | °C
As of 12:53 PM on Saturday 22 Nov 2014 (Local Time) from KUAO Reporting Station
Light Rain Light Rain  
Wind Chill: 51°   Ceiling: 5000
Heat Index: 51°   Visibility: 10mi
Dew Point: 47°   Wind: 12mph
Humidity: 86%   Direction: 220°SW
Pressure: 29.96"   Gusts: NA
Location:  45.38°N, 122.59°W
Report Text: KUAO 222053Z AUTO 22010KT 10SM -RA FEW017 BKN050 OVC085 11/08 A2996 RMK AO2 RAE27B50 SLP145 P0008 60010 T01060083 53031
Loading
Personal Weather Stations






























Interactive Weather Map New forecast layout! Learn more

10-Day Weather Forecast

Advertisements
Track Severe Weather on mobile